Aviation Digital Data Service (ADDS)

Output produced by METARs form (1200 UTC 26 March 2019)
found at http://www.aviationweather.gov/metar/data/
 
SEGU 260925Z 2612/2712 06005KT 9999 BKN020 BKN090 
     BECMG 2614/2615 SCT026 SCT100 
     BECMG 2619/2620 16005KT 
     FM270000 22006KT 9999 SCT020 BKN090 
     BECMG 2706/2707 BKN020 BKN100 TX31/2620Z TN25/2709Z
       
SELT 260925Z 2612/2712 17006KT 9999 SCT026 
     BECMG 2617/2618 17015KT BKN030 
     FM270000 18004KT 9999 SCT030 
     FM270500 VRB03KT 9999 SCT013 BKN030 TX19/2619Z TN09/2711Z
       
SEMT 260925Z 2612/2712 20004KT 9999 BKN020 
     BECMG 2618/2620 28010KT SCT020 
     BECMG 2623/2701 21006KT 
     BECMG 2705/2706 BKN020 TX30/2620Z TN23/2710Z
       
SEQM 260925Z 2612/2712 VRB03KT 9999 FEW026 SCT300 
     FM261800 36012KT 9999 SCT030 SCT100 
     PROB30 
     TEMPO 2620/2623 TS FEW026CB BKN030 
     FM270000 01004KT 9999 SCT005 BKN020 
     FM270500 00000KT 6000 BCFG SCT003 BKN020 TX24/2619Z TN12/2711Z